sensor_id;sensor_type;location;lat;lon;timestamp;P1;durP1;ratioP1;P2;durP2;ratioP2
44440;SDS011;30146;52.268;20.944;2024-03-08T00:01:03;38.30;;;16.80;;
44440;SDS011;30146;52.268;20.944;2024-03-08T00:06:04;37.90;;;15.50;;
44440;SDS011;30146;52.268;20.944;2024-03-08T00:08:35;39.00;;;15.10;;
44440;SDS011;30146;52.268;20.944;2024-03-08T00:11:06;40.60;;;16.10;;
44440;SDS011;30146;52.268;20.944;2024-03-08T00:13:38;41.90;;;16.00;;
44440;SDS011;30146;52.268;20.944;2024-03-08T00:16:09;40.00;;;16.40;;
44440;SDS011;30146;52.268;20.944;2024-03-08T00:18:40;42.10;;;17.00;;
44440;SDS011;30146;52.268;20.944;2024-03-08T00:21:12;41.40;;;17.70;;
44440;SDS011;30146;52.268;20.944;2024-03-08T00:23:44;39.40;;;17.60;;
44440;SDS011;30146;52.268;20.944;2024-03-08T00:26:15;43.50;;;17.40;;
44440;SDS011;30146;52.268;20.944;2024-03-08T00:28:46;39.70;;;16.10;;
44440;SDS011;30146;52.268;20.944;2024-03-08T00:31:18;38.90;;;16.20;;
44440;SDS011;30146;52.268;20.944;2024-03-08T00:33:49;42.30;;;17.90;;
44440;SDS011;30146;52.268;20.944;2024-03-08T00:38:50;44.60;;;16.40;;
44440;SDS011;30146;52.268;20.944;2024-03-08T00:41:21;41.70;;;16.80;;
44440;SDS011;30146;52.268;20.944;2024-03-08T00:43:54;41.00;;;16.60;;
44440;SDS011;30146;52.268;20.944;2024-03-08T00:46:25;42.50;;;17.80;;
44440;SDS011;30146;52.268;20.944;2024-03-08T00:48:59;42.00;;;17.00;;
44440;SDS011;30146;52.268;20.944;2024-03-08T00:51:30;45.70;;;16.90;;
44440;SDS011;30146;52.268;20.944;2024-03-08T00:54:01;43.40;;;17.80;;
44440;SDS011;30146;52.268;20.944;2024-03-08T00:56:32;46.70;;;17.50;;
44440;SDS011;30146;52.268;20.944;2024-03-08T00:59:04;48.00;;;18.50;;
44440;SDS011;30146;52.268;20.944;2024-03-08T01:06:36;46.70;;;17.90;;
44440;SDS011;30146;52.268;20.944;2024-03-08T01:09:07;44.60;;;18.50;;
44440;SDS011;30146;52.268;20.944;2024-03-08T01:11:38;43.00;;;17.70;;
44440;SDS011;30146;52.268;20.944;2024-03-08T01:14:09;48.10;;;18.40;;
44440;SDS011;30146;52.268;20.944;2024-03-08T01:16:40;51.20;;;18.80;;
44440;SDS011;30146;52.268;20.944;2024-03-08T01:19:11;50.70;;;18.20;;
44440;SDS011;30146;52.268;20.944;2024-03-08T01:21:43;47.80;;;19.80;;
44440;SDS011;30146;52.268;20.944;2024-03-08T01:24:14;44.60;;;18.30;;
44440;SDS011;30146;52.268;20.944;2024-03-08T01:26:45;47.20;;;18.80;;
44440;SDS011;30146;52.268;20.944;2024-03-08T01:29:16;45.70;;;19.30;;
44440;SDS011;30146;52.268;20.944;2024-03-08T01:31:47;48.80;;;18.50;;
44440;SDS011;30146;52.268;20.944;2024-03-08T01:34:20;44.00;;;19.40;;
44440;SDS011;30146;52.268;20.944;2024-03-08T01:36:51;44.90;;;17.60;;
44440;SDS011;30146;52.268;20.944;2024-03-08T01:39:23;46.50;;;18.60;;
44440;SDS011;30146;52.268;20.944;2024-03-08T01:41:55;44.90;;;18.10;;
44440;SDS011;30146;52.268;20.944;2024-03-08T01:44:26;45.20;;;19.00;;
44440;SDS011;30146;52.268;20.944;2024-03-08T01:46:58;45.40;;;17.60;;
44440;SDS011;30146;52.268;20.944;2024-03-08T01:51:59;45.70;;;17.40;;
44440;SDS011;30146;52.268;20.944;2024-03-08T01:54:30;49.70;;;18.80;;
44440;SDS011;30146;52.268;20.944;2024-03-08T01:57:02;44.00;;;17.50;;
44440;SDS011;30146;52.268;20.944;2024-03-08T01:59:33;48.30;;;18.40;;
44440;SDS011;30146;52.268;20.944;2024-03-08T02:02:04;44.80;;;19.00;;
44440;SDS011;30146;52.268;20.944;2024-03-08T02:04:37;43.90;;;18.50;;
44440;SDS011;30146;52.268;20.944;2024-03-08T02:07:08;46.00;;;20.10;;
44440;SDS011;30146;52.268;20.944;2024-03-08T02:09:40;45.90;;;19.60;;
44440;SDS011;30146;52.268;20.944;2024-03-08T02:12:11;48.40;;;18.70;;
44440;SDS011;30146;52.268;20.944;2024-03-08T02:14:42;43.60;;;17.90;;
44440;SDS011;30146;52.268;20.944;2024-03-08T02:17:13;42.40;;;17.20;;
44440;SDS011;30146;52.268;20.944;2024-03-08T02:19:44;48.10;;;17.70;;
44440;SDS011;30146;52.268;20.944;2024-03-08T02:22:15;46.40;;;18.80;;
44440;SDS011;30146;52.268;20.944;2024-03-08T02:24:48;44.30;;;18.90;;
44440;SDS011;30146;52.268;20.944;2024-03-08T02:27:24;42.50;;;18.00;;
44440;SDS011;30146;52.268;20.944;2024-03-08T02:29:55;47.00;;;18.10;;
44440;SDS011;30146;52.268;20.944;2024-03-08T02:32:28;46.60;;;17.50;;
44440;SDS011;30146;52.268;20.944;2024-03-08T02:35:01;48.60;;;18.40;;
44440;SDS011;30146;52.268;20.944;2024-03-08T02:37:34;43.50;;;18.10;;
44440;SDS011;30146;52.268;20.944;2024-03-08T02:40:07;46.90;;;18.10;;
44440;SDS011;30146;52.268;20.944;2024-03-08T02:42:40;45.00;;;18.10;;
44440;SDS011;30146;52.268;20.944;2024-03-08T02:45:11;46.10;;;17.30;;
44440;SDS011;30146;52.268;20.944;2024-03-08T02:47:42;49.50;;;18.90;;
44440;SDS011;30146;52.268;20.944;2024-03-08T02:50:13;49.20;;;17.80;;
44440;SDS011;30146;52.268;20.944;2024-03-08T02:52:44;40.50;;;18.30;;
44440;SDS011;30146;52.268;20.944;2024-03-08T02:55:15;45.60;;;18.90;;
44440;SDS011;30146;52.268;20.944;2024-03-08T02:57:46;50.40;;;17.90;;
44440;SDS011;30146;52.268;20.944;2024-03-08T03:00:18;43.50;;;18.10;;
44440;SDS011;30146;52.268;20.944;2024-03-08T03:02:52;48.00;;;18.10;;
44440;SDS011;30146;52.268;20.944;2024-03-08T03:05:23;49.20;;;17.30;;
44440;SDS011;30146;52.268;20.944;2024-03-08T03:07:56;43.10;;;17.40;;
44440;SDS011;30146;52.268;20.944;2024-03-08T03:10:28;42.90;;;17.50;;
44440;SDS011;30146;52.268;20.944;2024-03-08T03:12:59;42.10;;;17.70;;
44440;SDS011;30146;52.268;20.944;2024-03-08T03:15:31;47.60;;;17.90;;
44440;SDS011;30146;52.268;20.944;2024-03-08T03:18:02;44.80;;;18.40;;
44440;SDS011;30146;52.268;20.944;2024-03-08T03:20:36;48.40;;;18.10;;
44440;SDS011;30146;52.268;20.944;2024-03-08T03:23:11;42.30;;;17.90;;
44440;SDS011;30146;52.268;20.944;2024-03-08T03:25:44;40.20;;;17.80;;
44440;SDS011;30146;52.268;20.944;2024-03-08T03:28:16;51.00;;;17.90;;
44440;SDS011;30146;52.268;20.944;2024-03-08T03:30:49;41.50;;;17.10;;
44440;SDS011;30146;52.268;20.944;2024-03-08T03:33:20;53.20;;;19.30;;
44440;SDS011;30146;52.268;20.944;2024-03-08T03:35:52;38.90;;;16.70;;
44440;SDS011;30146;52.268;20.944;2024-03-08T03:38:23;43.70;;;17.50;;
44440;SDS011;30146;52.268;20.944;2024-03-08T03:40:56;40.70;;;18.60;;
44440;SDS011;30146;52.268;20.944;2024-03-08T03:43:34;45.40;;;18.60;;
44440;SDS011;30146;52.268;20.944;2024-03-08T03:46:07;39.10;;;18.00;;
44440;SDS011;30146;52.268;20.944;2024-03-08T03:48:40;40.70;;;16.50;;
44440;SDS011;30146;52.268;20.944;2024-03-08T03:51:11;43.90;;;18.20;;
44440;SDS011;30146;52.268;20.944;2024-03-08T03:53:43;43.50;;;16.80;;
44440;SDS011;30146;52.268;20.944;2024-03-08T03:56:16;40.20;;;16.90;;
44440;SDS011;30146;52.268;20.944;2024-03-08T03:58:48;45.10;;;17.70;;
44440;SDS011;30146;52.268;20.944;2024-03-08T04:01:19;46.90;;;17.50;;
44440;SDS011;30146;52.268;20.944;2024-03-08T04:03:52;46.50;;;17.10;;
44440;SDS011;30146;52.268;20.944;2024-03-08T04:06:24;45.90;;;17.10;;
44440;SDS011;30146;52.268;20.944;2024-03-08T04:08:56;44.30;;;18.90;;
44440;SDS011;30146;52.268;20.944;2024-03-08T04:11:27;42.60;;;16.80;;
44440;SDS011;30146;52.268;20.944;2024-03-08T04:14:00;47.90;;;18.00;;
44440;SDS011;30146;52.268;20.944;2024-03-08T04:16:31;40.70;;;15.90;;
44440;SDS011;30146;52.268;20.944;2024-03-08T04:19:02;38.90;;;16.00;;
44440;SDS011;30146;52.268;20.944;2024-03-08T04:21:33;44.10;;;18.20;;
44440;SDS011;30146;52.268;20.944;2024-03-08T04:24:04;44.40;;;18.10;;
44440;SDS011;30146;52.268;20.944;2024-03-08T04:26:37;49.00;;;18.40;;
44440;SDS011;30146;52.268;20.944;2024-03-08T04:29:09;45.30;;;17.60;;
44440;SDS011;30146;52.268;20.944;2024-03-08T04:31:42;41.60;;;17.30;;
44440;SDS011;30146;52.268;20.944;2024-03-08T04:34:13;46.30;;;18.00;;
44440;SDS011;30146;52.268;20.944;2024-03-08T04:36:46;45.40;;;18.30;;
44440;SDS011;30146;52.268;20.944;2024-03-08T04:39:18;47.80;;;20.70;;
44440;SDS011;30146;52.268;20.944;2024-03-08T04:41:49;44.60;;;19.20;;
44440;SDS011;30146;52.268;20.944;2024-03-08T04:44:22;49.10;;;20.70;;
44440;SDS011;30146;52.268;20.944;2024-03-08T04:46:53;51.60;;;21.20;;
44440;SDS011;30146;52.268;20.944;2024-03-08T04:49:24;57.60;;;22.20;;
44440;SDS011;30146;52.268;20.944;2024-03-08T04:51:56;52.90;;;23.00;;
44440;SDS011;30146;52.268;20.944;2024-03-08T04:54:28;53.80;;;23.10;;
44440;SDS011;30146;52.268;20.944;2024-03-08T04:57:02;48.00;;;21.70;;
44440;SDS011;30146;52.268;20.944;2024-03-08T04:59:36;56.50;;;24.70;;
44440;SDS011;30146;52.268;20.944;2024-03-08T05:02:08;62.90;;;29.00;;
44440;SDS011;30146;52.268;20.944;2024-03-08T05:04:39;68.50;;;31.50;;
44440;SDS011;30146;52.268;20.944;2024-03-08T05:07:11;65.50;;;31.10;;
44440;SDS011;30146;52.268;20.944;2024-03-08T05:09:44;64.70;;;30.10;;
44440;SDS011;30146;52.268;20.944;2024-03-08T05:12:19;66.90;;;30.50;;
44440;SDS011;30146;52.268;20.944;2024-03-08T05:14:50;69.90;;;30.80;;
44440;SDS011;30146;52.268;20.944;2024-03-08T05:17:22;78.60;;;34.00;;
44440;SDS011;30146;52.268;20.944;2024-03-08T05:19:54;71.60;;;30.80;;
44440;SDS011;30146;52.268;20.944;2024-03-08T05:22:26;69.10;;;31.70;;
44440;SDS011;30146;52.268;20.944;2024-03-08T05:24:57;72.60;;;30.40;;
44440;SDS011;30146;52.268;20.944;2024-03-08T05:27:28;70.60;;;31.20;;
44440;SDS011;30146;52.268;20.944;2024-03-08T05:30:01;69.70;;;28.00;;
44440;SDS011;30146;52.268;20.944;2024-03-08T05:32:33;67.90;;;31.50;;
44440;SDS011;30146;52.268;20.944;2024-03-08T05:35:06;67.20;;;30.50;;
44440;SDS011;30146;52.268;20.944;2024-03-08T05:37:38;66.30;;;30.00;;
44440;SDS011;30146;52.268;20.944;2024-03-08T05:40:10;70.50;;;32.10;;
44440;SDS011;30146;52.268;20.944;2024-03-08T05:42:46;71.50;;;31.80;;
44440;SDS011;30146;52.268;20.944;2024-03-08T05:45:17;70.40;;;31.90;;
44440;SDS011;30146;52.268;20.944;2024-03-08T05:47:48;74.30;;;34.80;;
44440;SDS011;30146;52.268;20.944;2024-03-08T05:50:19;71.80;;;34.40;;
44440;SDS011;30146;52.268;20.944;2024-03-08T05:52:50;71.50;;;32.80;;
44440;SDS011;30146;52.268;20.944;2024-03-08T05:55:21;74.60;;;34.50;;
44440;SDS011;30146;52.268;20.944;2024-03-08T05:57:53;73.80;;;35.20;;
44440;SDS011;30146;52.268;20.944;2024-03-08T06:02:54;66.50;;;34.10;;
44440;SDS011;30146;52.268;20.944;2024-03-08T06:05:28;71.50;;;33.70;;
44440;SDS011;30146;52.268;20.944;2024-03-08T06:07:58;65.40;;;34.00;;
44440;SDS011;30146;52.268;20.944;2024-03-08T06:10:30;63.20;;;32.80;;
44440;SDS011;30146;52.268;20.944;2024-03-08T06:13:01;60.90;;;32.10;;
44440;SDS011;30146;52.268;20.944;2024-03-08T06:15:32;56.90;;;28.20;;
44440;SDS011;30146;52.268;20.944;2024-03-08T06:18:04;58.70;;;29.30;;
44440;SDS011;30146;52.268;20.944;2024-03-08T06:20:39;51.80;;;28.30;;
44440;SDS011;30146;52.268;20.944;2024-03-08T06:23:11;63.80;;;32.50;;
44440;SDS011;30146;52.268;20.944;2024-03-08T06:25:46;65.30;;;35.30;;
44440;SDS011;30146;52.268;20.944;2024-03-08T06:28:17;64.70;;;33.70;;
44440;SDS011;30146;52.268;20.944;2024-03-08T06:30:49;65.20;;;34.70;;
44440;SDS011;30146;52.268;20.944;2024-03-08T06:33:21;63.40;;;32.70;;
44440;SDS011;30146;52.268;20.944;2024-03-08T06:35:54;63.20;;;35.30;;
44440;SDS011;30146;52.268;20.944;2024-03-08T06:38:26;65.50;;;35.90;;
44440;SDS011;30146;52.268;20.944;2024-03-08T06:40:59;66.40;;;38.00;;
44440;SDS011;30146;52.268;20.944;2024-03-08T06:43:32;66.10;;;35.60;;
44440;SDS011;30146;52.268;20.944;2024-03-08T06:46:03;59.40;;;35.50;;
44440;SDS011;30146;52.268;20.944;2024-03-08T06:48:34;64.70;;;34.20;;
44440;SDS011;30146;52.268;20.944;2024-03-08T06:51:08;57.40;;;32.70;;
44440;SDS011;30146;52.268;20.944;2024-03-08T06:53:40;56.50;;;33.40;;
44440;SDS011;30146;52.268;20.944;2024-03-08T06:56:12;55.90;;;31.80;;
44440;SDS011;30146;52.268;20.944;2024-03-08T06:58:43;53.90;;;32.70;;
44440;SDS011;30146;52.268;20.944;2024-03-08T07:01:17;47.50;;;28.20;;
44440;SDS011;30146;52.268;20.944;2024-03-08T07:03:49;47.10;;;28.80;;
44440;SDS011;30146;52.268;20.944;2024-03-08T07:06:20;47.60;;;27.90;;
44440;SDS011;30146;52.268;20.944;2024-03-08T07:08:51;45.20;;;27.50;;
44440;SDS011;30146;52.268;20.944;2024-03-08T07:11:22;48.60;;;27.30;;
44440;SDS011;30146;52.268;20.944;2024-03-08T07:13:53;46.30;;;26.70;;
44440;SDS011;30146;52.268;20.944;2024-03-08T07:16:25;39.10;;;23.10;;
44440;SDS011;30146;52.268;20.944;2024-03-08T07:18:56;44.60;;;26.10;;
44440;SDS011;30146;52.268;20.944;2024-03-08T07:21:27;41.20;;;25.10;;
44440;SDS011;30146;52.268;20.944;2024-03-08T07:23:58;44.30;;;25.50;;
44440;SDS011;30146;52.268;20.944;2024-03-08T07:26:46;42.80;;;24.70;;
44440;SDS011;30146;52.268;20.944;2024-03-08T07:29:18;40.50;;;24.30;;
44440;SDS011;30146;52.268;20.944;2024-03-08T07:31:48;36.90;;;21.90;;
44440;SDS011;30146;52.268;20.944;2024-03-08T07:34:29;36.80;;;21.90;;
44440;SDS011;30146;52.268;20.944;2024-03-08T07:37:00;36.80;;;23.50;;
44440;SDS011;30146;52.268;20.944;2024-03-08T07:39:32;33.90;;;22.00;;
44440;SDS011;30146;52.268;20.944;2024-03-08T07:42:03;34.00;;;21.50;;
44440;SDS011;30146;52.268;20.944;2024-03-08T07:44:34;35.90;;;21.70;;
44440;SDS011;30146;52.268;20.944;2024-03-08T07:47:05;29.80;;;20.00;;
44440;SDS011;30146;52.268;20.944;2024-03-08T07:49:37;26.60;;;17.70;;
44440;SDS011;30146;52.268;20.944;2024-03-08T07:52:08;25.30;;;17.50;;
44440;SDS011;30146;52.268;20.944;2024-03-08T07:54:43;24.20;;;15.90;;
44440;SDS011;30146;52.268;20.944;2024-03-08T07:57:14;28.70;;;17.20;;
44440;SDS011;30146;52.268;20.944;2024-03-08T08:02:14;26.20;;;15.10;;
44440;SDS011;30146;52.268;20.944;2024-03-08T08:04:45;21.80;;;15.10;;
44440;SDS011;30146;52.268;20.944;2024-03-08T08:07:16;25.70;;;16.30;;
44440;SDS011;30146;52.268;20.944;2024-03-08T08:09:47;28.10;;;17.00;;
44440;SDS011;30146;52.268;20.944;2024-03-08T08:12:18;22.00;;;15.10;;
44440;SDS011;30146;52.268;20.944;2024-03-08T08:14:49;23.60;;;15.00;;
44440;SDS011;30146;52.268;20.944;2024-03-08T08:17:23;23.20;;;14.80;;
44440;SDS011;30146;52.268;20.944;2024-03-08T08:19:54;20.20;;;15.50;;
44440;SDS011;30146;52.268;20.944;2024-03-08T08:22:25;21.10;;;13.50;;
44440;SDS011;30146;52.268;20.944;2024-03-08T08:24:56;16.70;;;12.40;;
44440;SDS011;30146;52.268;20.944;2024-03-08T08:27:28;17.00;;;11.60;;
44440;SDS011;30146;52.268;20.944;2024-03-08T08:32:28;17.20;;;12.30;;
44440;SDS011;30146;52.268;20.944;2024-03-08T08:34:59;17.70;;;11.20;;
44440;SDS011;30146;52.268;20.944;2024-03-08T08:37:32;17.60;;;12.20;;
44440;SDS011;30146;52.268;20.944;2024-03-08T08:40:04;18.20;;;12.70;;
44440;SDS011;30146;52.268;20.944;2024-03-08T08:42:38;18.60;;;12.60;;
44440;SDS011;30146;52.268;20.944;2024-03-08T08:45:10;18.60;;;12.50;;
44440;SDS011;30146;52.268;20.944;2024-03-08T08:47:45;16.90;;;12.20;;
44440;SDS011;30146;52.268;20.944;2024-03-08T08:50:17;13.80;;;10.60;;
44440;SDS011;30146;52.268;20.944;2024-03-08T08:52:52;20.10;;;10.80;;
44440;SDS011;30146;52.268;20.944;2024-03-08T08:55:23;13.70;;;9.80;;
44440;SDS011;30146;52.268;20.944;2024-03-08T08:57:54;14.20;;;10.50;;
44440;SDS011;30146;52.268;20.944;2024-03-08T09:00:26;14.40;;;10.90;;
44440;SDS011;30146;52.268;20.944;2024-03-08T09:02:59;17.50;;;10.30;;
44440;SDS011;30146;52.268;20.944;2024-03-08T09:05:30;14.80;;;10.00;;
44440;SDS011;30146;52.268;20.944;2024-03-08T09:08:07;15.60;;;11.00;;
44440;SDS011;30146;52.268;20.944;2024-03-08T09:10:39;17.00;;;10.20;;
44440;SDS011;30146;52.268;20.944;2024-03-08T09:13:10;14.40;;;10.10;;
44440;SDS011;30146;52.268;20.944;2024-03-08T09:15:55;14.30;;;10.10;;
44440;SDS011;30146;52.268;20.944;2024-03-08T09:18:26;13.70;;;9.40;;
44440;SDS011;30146;52.268;20.944;2024-03-08T09:20:57;15.00;;;10.70;;
44440;SDS011;30146;52.268;20.944;2024-03-08T09:23:28;17.30;;;10.40;;
44440;SDS011;30146;52.268;20.944;2024-03-08T09:25:59;16.80;;;10.70;;
44440;SDS011;30146;52.268;20.944;2024-03-08T09:28:37;14.50;;;10.20;;
44440;SDS011;30146;52.268;20.944;2024-03-08T09:31:08;15.50;;;10.10;;
44440;SDS011;30146;52.268;20.944;2024-03-08T09:33:43;15.90;;;9.60;;
44440;SDS011;30146;52.268;20.944;2024-03-08T09:36:14;13.90;;;9.70;;
44440;SDS011;30146;52.268;20.944;2024-03-08T09:38:45;15.00;;;9.60;;
44440;SDS011;30146;52.268;20.944;2024-03-08T09:41:18;14.90;;;10.10;;
44440;SDS011;30146;52.268;20.944;2024-03-08T09:43:50;15.60;;;9.60;;
44440;SDS011;30146;52.268;20.944;2024-03-08T09:46:23;20.00;;;10.80;;
44440;SDS011;30146;52.268;20.944;2024-03-08T09:48:55;20.00;;;9.90;;
44440;SDS011;30146;52.268;20.944;2024-03-08T09:51:27;19.30;;;11.80;;
44440;SDS011;30146;52.268;20.944;2024-03-08T09:53:58;22.50;;;11.40;;
44440;SDS011;30146;52.268;20.944;2024-03-08T09:56:44;16.20;;;9.30;;
44440;SDS011;30146;52.268;20.944;2024-03-08T09:59:17;16.60;;;10.10;;
44440;SDS011;30146;52.268;20.944;2024-03-08T10:02:18;18.00;;;9.30;;
44440;SDS011;30146;52.268;20.944;2024-03-08T10:04:50;13.90;;;8.70;;
44440;SDS011;30146;52.268;20.944;2024-03-08T10:07:23;15.50;;;8.80;;
44440;SDS011;30146;52.268;20.944;2024-03-08T10:09:53;15.70;;;9.00;;
44440;SDS011;30146;52.268;20.944;2024-03-08T10:12:26;18.90;;;10.30;;
44440;SDS011;30146;52.268;20.944;2024-03-08T10:15:00;16.60;;;9.00;;
44440;SDS011;30146;52.268;20.944;2024-03-08T10:17:31;17.00;;;10.00;;
44440;SDS011;30146;52.268;20.944;2024-03-08T10:20:03;19.60;;;10.70;;
44440;SDS011;30146;52.268;20.944;2024-03-08T10:22:43;17.30;;;9.50;;
44440;SDS011;30146;52.268;20.944;2024-03-08T10:25:34;22.60;;;11.50;;
44440;SDS011;30146;52.268;20.944;2024-03-08T10:28:11;19.90;;;10.10;;
44440;SDS011;30146;52.268;20.944;2024-03-08T10:30:47;15.90;;;8.30;;
44440;SDS011;30146;52.268;20.944;2024-03-08T10:33:18;14.20;;;8.50;;
44440;SDS011;30146;52.268;20.944;2024-03-08T10:35:49;16.90;;;9.10;;
44440;SDS011;30146;52.268;20.944;2024-03-08T10:38:21;14.80;;;8.00;;
44440;SDS011;30146;52.268;20.944;2024-03-08T10:40:55;15.60;;;9.00;;
44440;SDS011;30146;52.268;20.944;2024-03-08T10:43:26;14.80;;;7.80;;
44440;SDS011;30146;52.268;20.944;2024-03-08T10:46:08;14.30;;;8.20;;
44440;SDS011;30146;52.268;20.944;2024-03-08T10:48:51;15.60;;;8.80;;
44440;SDS011;30146;52.268;20.944;2024-03-08T10:51:26;16.00;;;8.70;;
44440;SDS011;30146;52.268;20.944;2024-03-08T10:54:00;15.50;;;8.80;;
44440;SDS011;30146;52.268;20.944;2024-03-08T10:56:33;16.50;;;8.10;;
44440;SDS011;30146;52.268;20.944;2024-03-08T10:59:05;18.90;;;9.00;;
44440;SDS011;30146;52.268;20.944;2024-03-08T11:01:40;15.30;;;9.20;;
44440;SDS011;30146;52.268;20.944;2024-03-08T11:06:44;15.50;;;7.70;;
44440;SDS011;30146;52.268;20.944;2024-03-08T11:09:30;17.60;;;8.50;;
44440;SDS011;30146;52.268;20.944;2024-03-08T11:14:53;12.90;;;7.70;;
44440;SDS011;30146;52.268;20.944;2024-03-08T11:17:46;21.40;;;9.30;;
44440;SDS011;30146;52.268;20.944;2024-03-08T11:20:26;17.10;;;8.30;;
44440;SDS011;30146;52.268;20.944;2024-03-08T11:23:03;16.30;;;7.60;;
44440;SDS011;30146;52.268;20.944;2024-03-08T11:25:39;13.10;;;6.90;;
44440;SDS011;30146;52.268;20.944;2024-03-08T11:28:16;19.60;;;8.70;;
44440;SDS011;30146;52.268;20.944;2024-03-08T11:33:55;15.10;;;8.20;;
44440;SDS011;30146;52.268;20.944;2024-03-08T11:36:27;21.40;;;9.60;;
44440;SDS011;30146;52.268;20.944;2024-03-08T11:39:04;13.10;;;7.50;;
44440;SDS011;30146;52.268;20.944;2024-03-08T11:41:43;12.70;;;6.90;;
44440;SDS011;30146;52.268;20.944;2024-03-08T11:44:15;16.50;;;7.60;;
44440;SDS011;30146;52.268;20.944;2024-03-08T11:46:46;19.20;;;8.70;;
44440;SDS011;30146;52.268;20.944;2024-03-08T11:49:21;16.20;;;8.30;;
44440;SDS011;30146;52.268;20.944;2024-03-08T11:51:54;18.90;;;8.40;;
44440;SDS011;30146;52.268;20.944;2024-03-08T11:54:28;17.10;;;8.40;;
44440;SDS011;30146;52.268;20.944;2024-03-08T11:57:00;18.70;;;8.80;;
44440;SDS011;30146;52.268;20.944;2024-03-08T11:59:31;14.30;;;8.10;;
44440;SDS011;30146;52.268;20.944;2024-03-08T12:04:32;13.50;;;7.60;;
44440;SDS011;30146;52.268;20.944;2024-03-08T12:07:04;17.20;;;8.10;;
44440;SDS011;30146;52.268;20.944;2024-03-08T12:09:40;17.60;;;7.90;;
44440;SDS011;30146;52.268;20.944;2024-03-08T12:12:17;14.50;;;7.10;;
44440;SDS011;30146;52.268;20.944;2024-03-08T12:14:49;16.20;;;7.10;;
44440;SDS011;30146;52.268;20.944;2024-03-08T12:17:20;15.00;;;8.20;;
44440;SDS011;30146;52.268;20.944;2024-03-08T12:19:52;15.50;;;7.50;;
44440;SDS011;30146;52.268;20.944;2024-03-08T12:25:31;16.00;;;6.60;;
44440;SDS011;30146;52.268;20.944;2024-03-08T12:28:08;16.20;;;6.70;;
44440;SDS011;30146;52.268;20.944;2024-03-08T12:30:48;18.80;;;7.90;;
44440;SDS011;30146;52.268;20.944;2024-03-08T12:33:23;14.80;;;6.10;;
44440;SDS011;30146;52.268;20.944;2024-03-08T12:35:55;14.90;;;7.20;;
44440;SDS011;30146;52.268;20.944;2024-03-08T12:38:28;17.00;;;7.80;;
44440;SDS011;30146;52.268;20.944;2024-03-08T12:41:00;14.00;;;7.20;;
44440;SDS011;30146;52.268;20.944;2024-03-08T12:43:34;13.10;;;7.40;;
44440;SDS011;30146;52.268;20.944;2024-03-08T12:46:06;16.30;;;8.10;;
44440;SDS011;30146;52.268;20.944;2024-03-08T12:51:09;12.40;;;6.00;;
44440;SDS011;30146;52.268;20.944;2024-03-08T12:53:40;22.10;;;10.80;;
44440;SDS011;30146;52.268;20.944;2024-03-08T12:56:13;17.30;;;8.80;;
44440;SDS011;30146;52.268;20.944;2024-03-08T12:58:58;13.50;;;6.10;;
44440;SDS011;30146;52.268;20.944;2024-03-08T13:04:01;13.00;;;6.00;;
44440;SDS011;30146;52.268;20.944;2024-03-08T13:06:34;16.50;;;7.50;;
44440;SDS011;30146;52.268;20.944;2024-03-08T13:09:09;14.20;;;6.30;;
44440;SDS011;30146;52.268;20.944;2024-03-08T13:14:12;13.40;;;6.80;;
44440;SDS011;30146;52.268;20.944;2024-03-08T13:16:44;16.40;;;7.50;;
44440;SDS011;30146;52.268;20.944;2024-03-08T13:19:20;14.40;;;6.60;;
44440;SDS011;30146;52.268;20.944;2024-03-08T13:22:00;13.00;;;5.70;;
44440;SDS011;30146;52.268;20.944;2024-03-08T13:24:35;11.40;;;6.10;;
44440;SDS011;30146;52.268;20.944;2024-03-08T13:27:07;14.10;;;6.30;;
44440;SDS011;30146;52.268;20.944;2024-03-08T13:29:48;17.20;;;6.20;;
44440;SDS011;30146;52.268;20.944;2024-03-08T13:32:19;13.50;;;6.60;;
44440;SDS011;30146;52.268;20.944;2024-03-08T13:34:53;16.70;;;5.90;;
44440;SDS011;30146;52.268;20.944;2024-03-08T13:37:27;12.70;;;5.80;;
44440;SDS011;30146;52.268;20.944;2024-03-08T13:39:58;14.40;;;6.20;;
44440;SDS011;30146;52.268;20.944;2024-03-08T13:42:35;22.20;;;10.20;;
44440;SDS011;30146;52.268;20.944;2024-03-08T13:45:09;17.90;;;9.20;;
44440;SDS011;30146;52.268;20.944;2024-03-08T13:47:45;13.00;;;5.60;;
44440;SDS011;30146;52.268;20.944;2024-03-08T13:50:24;12.50;;;6.00;;
44440;SDS011;30146;52.268;20.944;2024-03-08T13:52:55;15.10;;;6.70;;
44440;SDS011;30146;52.268;20.944;2024-03-08T13:57:56;13.00;;;5.80;;
44440;SDS011;30146;52.268;20.944;2024-03-08T14:00:28;11.40;;;5.30;;
44440;SDS011;30146;52.268;20.944;2024-03-08T14:03:01;11.10;;;5.50;;
44440;SDS011;30146;52.268;20.944;2024-03-08T14:05:34;12.10;;;5.70;;
44440;SDS011;30146;52.268;20.944;2024-03-08T14:08:07;15.10;;;6.10;;
44440;SDS011;30146;52.268;20.944;2024-03-08T14:10:40;13.30;;;5.70;;
44440;SDS011;30146;52.268;20.944;2024-03-08T14:13:11;13.40;;;5.30;;
44440;SDS011;30146;52.268;20.944;2024-03-08T14:15:44;12.00;;;5.40;;
44440;SDS011;30146;52.268;20.944;2024-03-08T14:18:16;11.20;;;5.60;;
44440;SDS011;30146;52.268;20.944;2024-03-08T14:20:47;10.90;;;6.00;;
44440;SDS011;30146;52.268;20.944;2024-03-08T14:23:19;13.80;;;5.60;;
44440;SDS011;30146;52.268;20.944;2024-03-08T14:25:50;13.30;;;5.80;;
44440;SDS011;30146;52.268;20.944;2024-03-08T14:28:22;12.00;;;6.20;;
44440;SDS011;30146;52.268;20.944;2024-03-08T14:30:55;11.80;;;5.90;;
44440;SDS011;30146;52.268;20.944;2024-03-08T14:33:29;12.90;;;5.20;;
44440;SDS011;30146;52.268;20.944;2024-03-08T14:36:00;14.20;;;5.80;;
44440;SDS011;30146;52.268;20.944;2024-03-08T14:38:30;10.70;;;5.20;;
44440;SDS011;30146;52.268;20.944;2024-03-08T14:41:03;12.40;;;5.60;;
44440;SDS011;30146;52.268;20.944;2024-03-08T14:43:35;12.90;;;5.90;;
44440;SDS011;30146;52.268;20.944;2024-03-08T14:46:06;15.50;;;6.30;;
44440;SDS011;30146;52.268;20.944;2024-03-08T14:48:37;12.30;;;5.60;;
44440;SDS011;30146;52.268;20.944;2024-03-08T14:51:09;12.00;;;5.60;;
44440;SDS011;30146;52.268;20.944;2024-03-08T14:53:44;10.10;;;5.30;;
44440;SDS011;30146;52.268;20.944;2024-03-08T14:56:15;12.20;;;5.80;;
44440;SDS011;30146;52.268;20.944;2024-03-08T14:58:47;18.10;;;5.30;;
44440;SDS011;30146;52.268;20.944;2024-03-08T15:01:20;11.90;;;5.60;;
44440;SDS011;30146;52.268;20.944;2024-03-08T15:03:56;12.30;;;5.70;;
44440;SDS011;30146;52.268;20.944;2024-03-08T15:06:36;12.70;;;5.40;;
44440;SDS011;30146;52.268;20.944;2024-03-08T15:11:46;13.40;;;4.90;;
44440;SDS011;30146;52.268;20.944;2024-03-08T15:14:18;13.70;;;6.70;;
44440;SDS011;30146;52.268;20.944;2024-03-08T15:16:49;15.40;;;6.70;;
44440;SDS011;30146;52.268;20.944;2024-03-08T15:19:20;12.80;;;6.00;;
44440;SDS011;30146;52.268;20.944;2024-03-08T15:21:52;14.80;;;6.60;;
44440;SDS011;30146;52.268;20.944;2024-03-08T15:24:24;12.80;;;6.00;;
44440;SDS011;30146;52.268;20.944;2024-03-08T15:26:56;11.30;;;6.50;;
44440;SDS011;30146;52.268;20.944;2024-03-08T15:29:30;13.10;;;5.60;;
44440;SDS011;30146;52.268;20.944;2024-03-08T15:32:03;13.30;;;5.80;;